Time;durP1;ratioP1;P1;durP2;ratioP2;P2;SDS_P1;SDS_P2;PMS_P1;PMS_P2;Temp;Humidity;BMP_temperature;BMP_pressure;BME280_temperature;BME280_humidity;BME280_pressure;Samples;Min_cycle;Max_cycle;Signal;HPM_P1;HPM_P2
2022/08/05 00:01:40;;;;;;;5.90;2.20;;;18.80;99.90;;;;;;5072232;28;20040;-69
2022/08/05 00:04:05;;;;;;;8.82;2.50;;;18.80;99.90;;;;;;5075907;28;20079;-70
2022/08/05 00:06:31;;;;;;;7.47;2.42;;;18.90;99.90;;;;;;5058909;28;20033;-70
2022/08/05 00:08:56;;;;;;;6.03;2.40;;;18.90;99.90;;;;;;5056450;28;20041;-69
2022/08/05 00:11:22;;;;;;;9.45;2.60;;;18.80;99.90;;;;;;5075530;28;20432;-69
2022/08/05 00:13:48;;;;;;;7.38;2.45;;;18.80;99.90;;;;;;5057167;28;20063;-69
2022/08/05 00:16:14;;;;;;;6.05;2.42;;;18.80;99.90;;;;;;5038681;28;20049;-69
2022/08/05 00:18:45;;;;;;;7.68;2.60;;;18.70;99.90;;;;;;5041433;28;20087;-69
2022/08/05 00:21:11;;;;;;;5.03;2.30;;;18.70;99.90;;;;;;5038700;28;20123;-69
2022/08/05 00:23:38;;;;;;;6.28;2.15;;;18.70;99.90;;;;;;5044523;28;20055;-69
2022/08/05 00:26:04;;;;;;;5.57;2.13;;;18.70;99.90;;;;;;5075573;28;20457;-69
2022/08/05 00:28:29;;;;;;;7.82;2.97;;;18.70;99.90;;;;;;5073420;28;20060;-69
2022/08/05 00:30:55;;;;;;;4.88;2.10;;;18.60;99.90;;;;;;5075190;28;20125;-69
2022/08/05 00:33:20;;;;;;;6.82;2.15;;;18.60;99.90;;;;;;5075105;28;20082;-69
2022/08/05 00:35:46;;;;;;;7.95;2.10;;;18.60;99.90;;;;;;5075128;28;20044;-69
2022/08/05 00:38:11;;;;;;;6.90;2.35;;;18.70;99.90;;;;;;5051959;28;20437;-69
2022/08/05 00:40:48;;;;;;;6.70;1.92;;;18.70;99.90;;;;;;5074913;28;20044;-69
2022/08/05 00:43:14;;;;;;;7.05;2.20;;;18.70;99.90;;;;;;5074858;28;20481;-69
2022/08/05 00:45:40;;;;;;;6.32;2.13;;;18.70;99.90;;;;;;5069067;28;20120;-69
2022/08/05 00:48:07;;;;;;;5.90;1.92;;;18.70;99.90;;;;;;5038858;28;20119;-69
2022/08/05 00:50:32;;;;;;;6.03;2.13;;;18.70;99.90;;;;;;5074829;28;20075;-69
2022/08/05 00:52:58;;;;;;;6.15;1.98;;;18.80;99.90;;;;;;5074818;28;20437;-70
2022/08/05 00:55:24;;;;;;;4.95;2.05;;;18.80;99.90;;;;;;5075022;28;20181;-70
2022/08/05 00:57:49;;;;;;;7.45;2.47;;;18.90;99.90;;;;;;5074574;28;20078;-69
2022/08/05 01:00:15;;;;;;;6.72;2.40;;;18.90;99.90;;;;;;5053588;28;20028;-69
2022/08/05 01:02:40;;;;;;;4.10;1.90;;;18.90;99.90;;;;;;5073264;28;20488;-69
2022/08/05 01:05:06;;;;;;;7.25;2.17;;;18.90;99.90;;;;;;5074541;28;20033;-69
2022/08/05 01:07:32;;;;;;;5.50;1.85;;;19.00;99.90;;;;;;5071241;28;20431;-69
2022/08/05 01:09:58;;;;;;;6.22;2.53;;;19.00;99.90;;;;;;5045740;28;20478;-69
2022/08/05 01:12:24;;;;;;;7.00;2.05;;;18.90;99.90;;;;;;5074107;28;20064;-69
2022/08/05 01:14:58;;;;;;;6.88;2.05;;;18.90;99.90;;;;;;5056211;28;20048;-69
2022/08/05 01:17:44;;;;;;;4.60;1.90;;;18.80;99.90;;;;;;5054206;28;20043;-70
2022/08/05 01:20:32;;;;;;;5.15;2.05;;;18.80;99.90;;;;;;5074483;28;20459;-69
2022/08/05 01:23:12;;;;;;;8.10;2.00;;;18.80;99.90;;;;;;5055621;28;20123;-69
2022/08/05 01:26:06;;;;;;;4.10;1.88;;;18.80;99.90;;;;;;5074241;28;20115;-68
2022/08/05 01:28:38;;;;;;;6.93;2.22;;;18.80;99.90;;;;;;5072155;28;20037;-69
2022/08/05 01:31:48;;;;;;;4.90;2.10;;;18.80;99.90;;;;;;5057347;28;20055;-69
2022/08/05 01:34:31;;;;;;;5.72;2.13;;;18.70;99.90;;;;;;5053919;28;20048;-68
2022/08/05 01:37:11;;;;;;;5.32;2.13;;;18.70;99.90;;;;;;5057565;28;20040;-69
2022/08/05 01:39:38;;;;;;;5.57;2.08;;;18.70;99.90;;;;;;5033930;28;20045;-68
2022/08/05 01:42:07;;;;;;;7.55;2.17;;;18.70;99.90;;;;;;5033907;28;20044;-69
2022/08/05 01:44:34;;;;;;;7.80;2.20;;;18.70;99.90;;;;;;5064274;28;20071;-69
2022/08/05 01:47:01;;;;;;;6.50;2.00;;;18.70;99.90;;;;;;5042291;28;20040;-69
2022/08/05 01:49:28;;;;;;;5.75;2.33;;;18.70;99.90;;;;;;5071715;28;20071;-69
2022/08/05 01:52:00;;;;;;;5.05;2.20;;;18.60;99.90;;;;;;5073879;28;20075;-70
2022/08/05 01:54:32;;;;;;;6.07;2.15;;;18.70;99.90;;;;;;5041789;28;20037;-69
2022/08/05 01:56:59;;;;;;;7.00;2.10;;;18.60;99.90;;;;;;5033185;28;20064;-69
2022/08/05 01:59:27;;;;;;;8.43;2.25;;;18.70;99.90;;;;;;5040521;28;20050;-68
2022/08/05 02:01:55;;;;;;;4.93;1.85;;;18.60;99.90;;;;;;5073366;28;20040;-69
2022/08/05 02:04:22;;;;;;;5.45;2.10;;;18.70;99.90;;;;;;5054919;28;20079;-70
2022/08/05 02:06:48;;;;;;;5.60;2.10;;;18.70;99.90;;;;;;5056972;28;20385;-69
2022/08/05 02:09:14;;;;;;;8.10;2.65;;;18.70;99.90;;;;;;5056844;28;20036;-69
2022/08/05 02:11:47;;;;;;;7.18;2.55;;;18.60;99.90;;;;;;5073577;28;20546;-69
2022/08/05 02:14:38;;;;;;;6.05;2.10;;;18.70;99.90;;;;;;5072773;28;20506;-68
2022/08/05 02:17:10;;;;;;;4.43;1.98;;;18.60;99.90;;;;;;5055203;28;20119;-69
2022/08/05 02:19:38;;;;;;;;;;;18.60;99.90;;;;;;5072266;28;20369;-69
2022/08/05 02:22:16;;;;;;;5.30;2.17;;;18.70;99.90;;;;;;5073344;28;20257;-69
2022/08/05 02:24:48;;;;;;;6.55;2.15;;;18.70;99.90;;;;;;5073343;28;20393;-69
2022/08/05 02:27:16;;;;;;;4.47;2.20;;;18.70;99.90;;;;;;5055099;28;20044;-68
2022/08/05 02:29:44;;;;;;;6.35;2.10;;;18.70;99.90;;;;;;5070880;28;20051;-68
2022/08/05 02:32:11;;;;;;;4.78;2.10;;;18.70;99.90;;;;;;5054663;28;20055;-69
2022/08/05 02:34:38;;;;;;;5.90;2.17;;;18.70;99.90;;;;;;5056443;28;20518;-69
2022/08/05 02:37:07;;;;;;;5.18;2.10;;;18.70;99.90;;;;;;5072830;28;20123;-69
2022/08/05 02:39:37;;;;;;;4.78;2.17;;;18.70;99.90;;;;;;5067218;28;20044;-69
2022/08/05 02:42:04;;;;;;;7.32;2.42;;;18.70;99.90;;;;;;5072688;28;20051;-69
2022/08/05 02:44:35;;;;;;;8.00;2.40;;;18.70;99.90;;;;;;5056235;28;20044;-69
2022/08/05 02:47:02;;;;;;;6.22;2.40;;;18.60;99.90;;;;;;5036905;28;20045;-69
2022/08/05 02:49:31;;;;;;;3.35;1.80;;;18.60;99.90;;;;;;5072416;28;20119;-69
2022/08/05 02:51:57;;;;;;;5.47;2.17;;;18.50;99.90;;;;;;5050904;28;20508;-69
2022/08/05 02:54:24;;;;;;;5.22;2.10;;;18.50;99.90;;;;;;5063727;28;20083;-69
2022/08/05 02:56:50;;;;;;;6.18;2.50;;;18.50;99.90;;;;;;5052629;28;20089;-69
2022/08/05 02:59:17;;;;;;;5.72;2.22;;;18.50;99.90;;;;;;5051572;28;20040;-69
2022/08/05 03:01:43;;;;;;;5.07;2.60;;;18.50;99.90;;;;;;5067785;28;20531;-69
2022/08/05 03:04:13;;;;;;;5.70;2.50;;;18.50;99.90;;;;;;5055663;28;20072;-69
2022/08/05 03:06:41;;;;;;;6.55;2.95;;;18.50;99.90;;;;;;5055626;28;20040;-69
2022/08/05 03:09:10;;;;;;;5.45;2.15;;;18.50;99.90;;;;;;5054261;28;20119;-69
2022/08/05 03:11:35;;;;;;;5.10;2.42;;;18.50;99.90;;;;;;5072468;28;20043;-69
2022/08/05 03:14:01;;;;;;;5.07;2.40;;;18.50;99.90;;;;;;5051797;28;20048;-69
2022/08/05 03:16:26;;;;;;;9.10;2.80;;;18.50;99.90;;;;;;5045720;28;20049;-69
2022/08/05 03:18:52;;;;;;;7.57;3.33;;;18.50;99.90;;;;;;5035248;28;20056;-69
2022/08/05 03:21:18;;;;;;;5.25;2.55;;;18.40;99.90;;;;;;5060310;28;20083;-70
2022/08/05 03:23:44;;;;;;;6.60;2.88;;;18.40;99.90;;;;;;5028839;28;20044;-69
2022/08/05 03:26:10;;;;;;;7.95;2.92;;;18.40;99.90;;;;;;5048672;28;20112;-69
2022/08/05 03:28:36;;;;;;;7.07;3.10;;;18.30;99.90;;;;;;5046411;28;20124;-69
2022/08/05 03:31:02;;;;;;;6.65;2.85;;;18.40;99.90;;;;;;5053645;28;20451;-69
2022/08/05 03:33:28;;;;;;;6.70;3.10;;;18.30;99.90;;;;;;5031404;28;20060;-69
2022/08/05 03:35:56;;;;;;;8.45;2.90;;;18.40;99.90;;;;;;5032539;28;20492;-70
2022/08/05 03:38:22;;;;;;;6.07;2.80;;;18.40;99.90;;;;;;5034994;28;20170;-69
2022/08/05 03:40:48;;;;;;;5.78;2.80;;;18.40;99.90;;;;;;5050754;28;20049;-69
2022/08/05 03:43:15;;;;;;;8.85;3.17;;;18.30;99.90;;;;;;5051741;28;20044;-69
2022/08/05 03:45:41;;;;;;;8.85;3.22;;;18.30;99.90;;;;;;5049117;28;20409;-69
2022/08/05 03:48:07;;;;;;;6.03;2.83;;;18.30;99.90;;;;;;5038551;28;20489;-70
2022/08/05 03:50:42;;;;;;;5.35;3.03;;;18.30;99.90;;;;;;5046113;28;20032;-69
2022/08/05 03:53:12;;;;;;;6.75;2.80;;;18.30;99.90;;;;;;5038689;28;20034;-70
2022/08/05 03:55:49;;;;;;;5.88;2.90;;;18.20;99.90;;;;;;5051845;28;20036;-69
2022/08/05 03:58:17;;;;;;;6.95;3.28;;;18.30;99.90;;;;;;5069177;28;20047;-69
2022/08/05 04:00:44;;;;;;;5.63;3.15;;;18.20;99.90;;;;;;5083228;28;20037;-69
2022/08/05 04:03:12;;;;;;;6.80;3.80;;;18.30;99.90;;;;;;5059751;28;20032;-69
2022/08/05 04:05:39;;;;;;;7.05;3.90;;;18.30;99.90;;;;;;5055608;28;20037;-69
2022/08/05 04:08:10;;;;;;;5.95;3.30;;;18.30;99.90;;;;;;5051589;28;20128;-69
2022/08/05 04:10:36;;;;;;;6.95;3.22;;;18.20;99.90;;;;;;5034639;28;20531;-69
2022/08/05 04:13:02;;;;;;;7.57;3.47;;;18.20;99.90;;;;;;5070255;28;20048;-69
2022/08/05 04:15:28;;;;;;;8.90;3.72;;;18.20;99.90;;;;;;5049710;28;20037;-69
2022/08/05 04:17:54;;;;;;;7.68;3.50;;;18.20;99.90;;;;;;5036513;28;20033;-69
2022/08/05 04:20:22;;;;;;;7.32;3.40;;;18.20;99.90;;;;;;5052869;28;20044;-69
2022/08/05 04:22:48;;;;;;;6.40;3.40;;;18.20;99.90;;;;;;5049762;28;20552;-69
2022/08/05 04:25:14;;;;;;;8.48;3.85;;;18.20;99.90;;;;;;5066369;28;20418;-69
2022/08/05 04:27:40;;;;;;;6.10;3.20;;;18.10;99.90;;;;;;5040220;28;20051;-69
2022/08/05 04:30:07;;;;;;;8.35;3.35;;;18.00;99.90;;;;;;5043554;28;20042;-69
2022/08/05 04:32:33;;;;;;;7.57;3.20;;;18.10;99.90;;;;;;5061397;28;20037;-69
2022/08/05 04:34:59;;;;;;;5.75;3.60;;;18.10;99.90;;;;;;5047856;28;20512;-69
2022/08/05 04:37:24;;;;;;;7.70;3.30;;;18.10;99.90;;;;;;5054674;28;20045;-69
2022/08/05 04:39:50;;;;;;;6.45;3.13;;;18.10;99.90;;;;;;5037892;28;20049;-69
2022/08/05 04:42:15;;;;;;;6.80;3.08;;;18.10;99.90;;;;;;5054989;28;20072;-69
2022/08/05 04:44:41;;;;;;;6.00;3.45;;;18.20;99.90;;;;;;5068492;28;20037;-69
2022/08/05 04:47:06;;;;;;;6.70;3.42;;;18.20;99.90;;;;;;5030659;28;20073;-69
2022/08/05 04:49:32;;;;;;;6.32;3.60;;;18.20;99.90;;;;;;5047396;28;20033;-69
2022/08/05 04:51:58;;;;;;;10.38;3.65;;;18.20;99.90;;;;;;5036014;28;20038;-69
2022/08/05 04:54:25;;;;;;;8.05;3.25;;;18.20;99.90;;;;;;5067437;28;20037;-69
2022/08/05 04:56:52;;;;;;;5.88;3.63;;;18.20;99.90;;;;;;5036671;28;20134;-69
2022/08/05 04:59:19;;;;;;;7.28;4.03;;;18.20;99.90;;;;;;5053715;28;20370;-69
2022/08/05 05:01:45;;;;;;;6.90;3.42;;;18.20;99.90;;;;;;5049538;28;20037;-69
2022/08/05 05:04:10;;;;;;;7.03;3.33;;;18.30;99.90;;;;;;5049443;28;20050;-69
2022/08/05 05:06:37;;;;;;;7.82;3.70;;;18.30;99.90;;;;;;5048319;28;20040;-69
2022/08/05 05:09:03;;;;;;;8.30;3.47;;;18.20;99.90;;;;;;5054872;28;20082;-69
2022/08/05 05:11:28;;;;;;;6.35;3.70;;;18.20;99.90;;;;;;5064278;28;20036;-69
2022/08/05 05:13:54;;;;;;;7.10;3.38;;;18.20;99.90;;;;;;5043721;28;20075;-69
2022/08/05 05:16:19;;;;;;;9.18;4.20;;;18.20;99.90;;;;;;5037735;28;20485;-69
2022/08/05 05:18:45;;;;;;;7.03;3.58;;;18.20;99.90;;;;;;5026679;28;20124;-69
2022/08/05 05:21:11;;;;;;;6.15;3.45;;;18.20;99.90;;;;;;5035219;28;20094;-69
2022/08/05 05:23:36;;;;;;;7.88;3.70;;;18.20;99.90;;;;;;5053830;28;20049;-69
2022/08/05 05:26:03;;;;;;;7.03;3.80;;;18.20;99.90;;;;;;5035189;28;20059;-69
2022/08/05 05:28:28;;;;;;;8.38;3.80;;;18.20;99.90;;;;;;5040326;28;20040;-69
2022/08/05 05:30:54;;;;;;;6.53;3.40;;;18.20;99.90;;;;;;5030224;28;20109;-69
2022/08/05 05:33:19;;;;;;;7.40;3.30;;;18.20;99.90;;;;;;5065402;28;20887;-69
2022/08/05 05:35:46;;;;;;;6.15;3.30;;;18.30;99.90;;;;;;5071356;28;20074;-69
2022/08/05 05:38:12;;;;;;;5.97;3.70;;;18.20;99.90;;;;;;5061037;28;20033;-69
2022/08/05 05:40:38;;;;;;;6.55;3.92;;;18.30;99.90;;;;;;5067130;28;20079;-69
2022/08/05 05:43:03;;;;;;;5.75;3.53;;;18.30;99.90;;;;;;5036644;28;20068;-69
2022/08/05 05:45:29;;;;;;;8.68;3.60;;;18.30;99.90;;;;;;5056582;28;20044;-69
2022/08/05 05:47:57;;;;;;;6.82;3.63;;;18.30;99.90;;;;;;5036484;28;20037;-69
2022/08/05 05:50:23;;;;;;;6.25;3.22;;;18.30;99.90;;;;;;5060380;28;20491;-69
2022/08/05 05:52:48;;;;;;;6.93;3.30;;;18.20;99.90;;;;;;5072327;28;20076;-69
2022/08/05 05:55:16;;;;;;;7.03;3.53;;;18.30;99.90;;;;;;5051394;28;20052;-69
2022/08/05 05:57:44;;;;;;;7.53;3.70;;;18.30;99.90;;;;;;5033243;28;20052;-69
2022/08/05 06:00:18;;;;;;;9.88;4.05;;;18.30;99.90;;;;;;5045641;28;20037;-69
2022/08/05 06:02:46;;;;;;;6.55;3.67;;;18.30;99.90;;;;;;5046454;28;20508;-69
2022/08/05 06:05:13;;;;;;;6.75;3.55;;;18.30;99.90;;;;;;5052567;28;20041;-69
2022/08/05 06:07:39;;;;;;;6.82;3.20;;;18.30;99.90;;;;;;5070024;28;20036;-69
2022/08/05 06:10:06;;;;;;;7.40;3.33;;;18.30;99.90;;;;;;5043183;28;20037;-69
2022/08/05 06:12:33;;;;;;;5.65;3.10;;;18.40;99.90;;;;;;5063999;28;20048;-68
2022/08/05 06:15:01;;;;;;;5.30;3.20;;;18.40;99.90;;;;;;5044194;28;20378;-69
2022/08/05 06:17:26;;;;;;;6.32;3.20;;;18.50;99.90;;;;;;5075489;28;20047;-69
2022/08/05 06:19:52;;;;;;;9.30;3.40;;;18.60;99.90;;;;;;5067390;28;20115;-69
2022/08/05 06:22:47;;;;;;;6.70;3.30;;;18.80;99.90;;;;;;5033666;28;20040;-69
2022/08/05 06:25:13;;;;;;;7.75;3.30;;;18.90;99.90;;;;;;5036007;28;20047;-69
2022/08/05 06:27:38;;;;;;;6.88;2.90;;;19.10;99.90;;;;;;5050978;28;20428;-69
2022/08/05 06:30:05;;;;;;;6.90;2.80;;;19.10;99.90;;;;;;5069987;28;20094;-69
2022/08/05 06:32:31;;;;;;;6.47;2.85;;;19.10;99.90;;;;;;5034872;28;20124;-68
2022/08/05 06:34:59;;;;;;;6.05;2.50;;;19.20;99.90;;;;;;5055262;28;20123;-68
2022/08/05 06:37:26;;;;;;;6.50;2.47;;;19.20;99.90;;;;;;5051657;28;20131;-68
2022/08/05 06:39:52;;;;;;;6.25;2.92;;;19.20;99.90;;;;;;5057831;28;20048;-69
2022/08/05 06:42:17;;;;;;;7.45;3.10;;;19.20;99.90;;;;;;5036153;28;20082;-68
2022/08/05 06:44:43;;;;;;;6.22;3.50;;;19.20;99.90;;;;;;5062466;28;20036;-68
2022/08/05 06:47:09;;;;;;;6.53;3.33;;;19.20;99.90;;;;;;5019981;28;20048;-69
2022/08/05 06:49:35;;;;;;;5.53;3.53;;;19.30;99.90;;;;;;5032841;28;20481;-68
2022/08/05 06:52:00;;;;;;;7.20;3.42;;;19.40;99.90;;;;;;5059566;28;20037;-69
2022/08/05 06:54:26;;;;;;;5.88;3.00;;;19.40;99.90;;;;;;5050812;28;20044;-68
2022/08/05 06:56:52;;;;;;;6.57;3.47;;;19.50;99.90;;;;;;5045044;28;20045;-69
2022/08/05 06:59:17;;;;;;;5.80;2.83;;;19.50;99.90;;;;;;5080658;28;20043;-69
2022/08/05 07:01:43;;;;;;;6.50;3.00;;;19.50;99.90;;;;;;5031972;28;20064;-68
2022/08/05 07:04:09;;;;;;;5.78;2.88;;;19.60;99.90;;;;;;5046492;28;20037;-68
2022/08/05 07:06:35;;;;;;;4.03;2.63;;;19.50;99.90;;;;;;5069471;28;20544;-74
2022/08/05 07:09:01;;;;;;;3.35;2.08;;;19.50;99.90;;;;;;5053633;28;20043;-74
2022/08/05 07:11:27;;;;;;;5.35;2.40;;;19.50;99.90;;;;;;5037169;28;20398;-69
2022/08/05 07:16:49;;;;;;;5.47;2.28;;;19.40;99.90;;;;;;5051018;28;20398;-70
2022/08/05 07:19:20;;;;;;;4.75;2.03;;;19.40;99.90;;;;;;5049471;28;20374;-69
2022/08/05 07:21:47;;;;;;;7.20;2.00;;;19.50;99.90;;;;;;5062135;28;20037;-70
2022/08/05 07:24:13;;;;;;;4.00;1.60;;;19.50;99.90;;;;;;5051795;28;20082;-70
2022/08/05 07:26:39;;;;;;;4.10;1.63;;;19.60;99.90;;;;;;5070177;28;20036;-69
2022/08/05 07:29:06;;;;;;;6.28;1.80;;;19.70;99.90;;;;;;5053869;28;20040;-70
2022/08/05 07:31:31;;;;;;;5.18;1.70;;;19.80;99.90;;;;;;5043370;28;20047;-70
2022/08/05 07:33:57;;;;;;;3.47;1.50;;;19.80;99.90;;;;;;5071838;28;20040;-70
2022/08/05 07:36:23;;;;;;;4.32;1.38;;;19.80;99.90;;;;;;5051765;28;20036;-70
2022/08/05 07:38:49;;;;;;;5.07;1.65;;;19.80;99.90;;;;;;5057213;28;20033;-70
2022/08/05 07:41:18;;;;;;;3.28;1.40;;;19.80;99.90;;;;;;5050497;28;20040;-70
2022/08/05 07:43:44;;;;;;;4.93;1.80;;;19.80;99.90;;;;;;5070488;28;20040;-70
2022/08/05 07:46:09;;;;;;;5.28;1.60;;;19.70;99.90;;;;;;5060687;28;20476;-70
2022/08/05 07:48:35;;;;;;;4.22;1.35;;;19.70;99.90;;;;;;5038208;28;20041;-70
2022/08/05 07:51:01;;;;;;;4.28;1.50;;;19.70;99.90;;;;;;5051554;28;20052;-70
2022/08/05 07:53:26;;;;;;;3.58;1.25;;;19.70;99.90;;;;;;5066210;28;20467;-69
2022/08/05 07:55:52;;;;;;;3.80;1.30;;;19.70;99.90;;;;;;5025560;28;20033;-69
2022/08/05 07:58:17;;;;;;;2.90;1.30;;;19.60;99.90;;;;;;5030159;28;20037;-69
2022/08/05 08:00:43;;;;;;;5.05;1.40;;;19.60;99.90;;;;;;5067346;28;20037;-70
2022/08/05 08:03:13;;;;;;;5.13;1.45;;;19.60;99.90;;;;;;5051304;28;20033;-70
2022/08/05 08:05:42;;;;;;;3.50;1.40;;;19.70;99.90;;;;;;5063143;28;20125;-70
2022/08/05 08:08:12;;;;;;;3.35;1.20;;;19.80;99.90;;;;;;5052947;28;20076;-70
2022/08/05 08:10:38;;;;;;;4.53;1.40;;;19.80;99.90;;;;;;5047411;28;20095;-69
2022/08/05 08:13:04;;;;;;;3.33;1.63;;;19.90;99.90;;;;;;5045664;28;20057;-70
2022/08/05 08:15:30;;;;;;;5.75;1.30;;;19.90;99.90;;;;;;5043699;28;20041;-70
2022/08/05 08:17:55;;;;;;;2.70;1.10;;;19.80;99.90;;;;;;5073187;28;20037;-70
2022/08/05 08:20:21;;;;;;;5.22;1.42;;;19.80;99.90;;;;;;5074931;28;20123;-70
2022/08/05 08:22:55;;;;;;;4.82;1.50;;;19.70;99.90;;;;;;5052205;28;20044;-70
2022/08/05 08:25:21;;;;;;;3.83;1.27;;;19.80;99.90;;;;;;5070153;28;20438;-70
2022/08/05 08:27:46;;;;;;;5.22;1.40;;;19.90;99.90;;;;;;5051999;28;20037;-70
2022/08/05 08:30:13;;;;;;;2.55;1.00;;;19.90;99.90;;;;;;5037547;28;20118;-70
2022/08/05 08:32:38;;;;;;;2.47;1.10;;;20.20;99.90;;;;;;5049095;28;20036;-70
2022/08/05 08:35:05;;;;;;;3.55;1.20;;;20.40;99.90;;;;;;5055129;28;20082;-71
2022/08/05 08:37:30;;;;;;;2.80;1.17;;;20.50;99.90;;;;;;5054738;28;20053;-70
2022/08/05 08:39:56;;;;;;;5.68;1.40;;;20.70;99.90;;;;;;5059375;28;20543;-70
2022/08/05 08:42:22;;;;;;;4.07;1.48;;;20.50;99.90;;;;;;5060879;28;20033;-70
2022/08/05 08:44:48;;;;;;;3.20;1.00;;;20.40;99.90;;;;;;5067431;28;20489;-69
2022/08/05 08:47:15;;;;;;;3.78;1.00;;;20.50;99.90;;;;;;5053608;28;20087;-70
2022/08/05 08:49:44;;;;;;;4.65;1.13;;;20.50;99.90;;;;;;5044740;28;20036;-70
2022/08/05 08:52:19;;;;;;;1.73;0.90;;;20.70;99.90;;;;;;5056506;28;20091;-70
2022/08/05 08:54:46;;;;;;;4.22;1.10;;;20.80;99.90;;;;;;5046660;28;20461;-70
2022/08/05 08:57:12;;;;;;;3.20;1.13;;;20.80;99.90;;;;;;5055691;28;20048;-70
2022/08/05 08:59:38;;;;;;;2.75;1.10;;;20.80;99.90;;;;;;5065355;28;20400;-70
2022/08/05 09:02:05;;;;;;;3.70;1.25;;;20.90;99.90;;;;;;5043214;28;20048;-70
2022/08/05 09:04:36;;;;;;;2.67;1.00;;;20.90;99.90;;;;;;5044246;28;20039;-70
2022/08/05 09:07:06;;;;;;;3.97;1.08;;;20.90;99.90;;;;;;5049241;28;20028;-70
2022/08/05 09:09:36;;;;;;;3.47;0.90;;;20.90;99.90;;;;;;5049870;28;20100;-69
2022/08/05 09:12:04;;;;;;;4.75;1.30;;;20.90;99.90;;;;;;5049511;28;20049;-70
2022/08/05 09:14:37;;;;;;;2.22;0.75;;;21.00;99.90;;;;;;5068100;28;20107;-70
2022/08/05 09:17:05;;;;;;;3.92;0.90;;;21.10;99.90;;;;;;5050354;28;20044;-70
2022/08/05 09:19:30;;;;;;;2.38;1.00;;;21.00;99.90;;;;;;5035907;28;20037;-70
2022/08/05 09:21:56;;;;;;;4.50;0.90;;;21.10;99.90;;;;;;5038829;28;20034;-70
2022/08/05 09:24:21;;;;;;;3.67;1.10;;;21.00;99.90;;;;;;5036037;28;20120;-70
2022/08/05 09:26:51;;;;;;;3.88;1.00;;;21.10;99.90;;;;;;5031895;28;20478;-70
2022/08/05 09:29:16;;;;;;;5.35;1.10;;;21.20;99.90;;;;;;5047690;28;20053;-70
2022/08/05 09:31:45;;;;;;;3.03;1.00;;;21.40;99.90;;;;;;5042440;28;20509;-70
2022/08/05 09:34:12;;;;;;;4.03;0.90;;;21.50;99.90;;;;;;5053611;28;20053;-70
2022/08/05 09:36:41;;;;;;;4.47;1.00;;;21.50;99.90;;;;;;5035231;28;20550;-70
2022/08/05 09:39:09;;;;;;;4.15;0.90;;;21.40;99.90;;;;;;5026257;28;20045;-70
2022/08/05 09:41:54;;;;;;;4.35;1.00;;;21.30;99.90;;;;;;5049081;28;20045;-70
2022/08/05 09:44:41;;;;;;;1.80;0.70;;;21.40;99.90;;;;;;5036701;28;20047;-70
2022/08/05 09:47:08;;;;;;;3.95;0.80;;;21.50;99.90;;;;;;5047085;28;20040;-70
2022/08/05 09:49:34;;;;;;;2.70;0.80;;;21.40;99.90;;;;;;5045800;28;20551;-70
2022/08/05 09:52:16;;;;;;;5.03;0.88;;;21.30;99.90;;;;;;5034485;28;20045;-70
2022/08/05 09:54:58;;;;;;;1.58;0.80;;;21.60;99.90;;;;;;5068856;28;20044;-70
2022/08/05 09:57:34;;;;;;;1.38;0.70;;;21.60;99.90;;;;;;5053452;28;20564;-70
2022/08/05 10:00:18;;;;;;;2.80;0.70;;;21.60;99.90;;;;;;5038587;28;20041;-70
2022/08/05 10:02:48;;;;;;;2.05;0.80;;;21.50;99.90;;;;;;5036252;28;20059;-70
2022/08/05 10:05:17;;;;;;;3.13;0.70;;;21.50;99.90;;;;;;5025332;28;20471;-70
2022/08/05 10:07:49;;;;;;;1.08;0.73;;;21.50;99.90;;;;;;5033285;28;20502;-70
2022/08/05 10:10:15;;;;;;;2.55;0.73;;;21.50;99.90;;;;;;5033225;28;20072;-71
2022/08/05 10:12:47;;;;;;;1.88;0.88;;;21.60;99.90;;;;;;5015783;28;20061;-70
2022/08/05 10:15:25;;;;;;;;;;;21.80;99.90;;;;;;5069295;28;20128;-70
2022/08/05 10:18:07;;;;;;;4.70;0.80;;;21.60;99.90;;;;;;5063637;28;19964;-70
2022/08/05 10:20:37;;;;;;;2.88;0.80;;;21.70;99.90;;;;;;5046701;28;20041;-70
2022/08/05 10:23:03;;;;;;;2.97;0.73;;;21.70;99.90;;;;;;5060172;28;20032;-70
2022/08/05 10:25:29;;;;;;;1.40;0.60;;;21.90;99.90;;;;;;5058038;28;20073;-72
2022/08/05 10:27:57;;;;;;;2.35;0.63;;;21.80;99.90;;;;;;5039595;28;20442;-70
2022/08/05 10:30:23;;;;;;;1.63;0.70;;;21.80;99.90;;;;;;5045361;28;20409;-71
2022/08/05 10:32:49;;;;;;;2.22;0.68;;;21.80;99.90;;;;;;5052521;28;20041;-71
2022/08/05 10:35:15;;;;;;;2.72;0.90;;;21.70;99.90;;;;;;5063613;28;20055;-71
2022/08/05 10:37:41;;;;;;;4.18;0.60;;;21.80;99.90;;;;;;5052124;28;20048;-70
2022/08/05 10:40:28;;;;;;;3.75;1.05;;;22.00;99.90;;;;;;5054531;28;20089;-71
2022/08/05 10:43:00;;;;;;;1.58;0.70;;;22.10;99.90;;;;;;5039517;28;20041;-71
2022/08/05 10:45:27;;;;;;;2.10;0.60;;;22.20;99.90;;;;;;5019305;28;20053;-71
2022/08/05 10:47:53;;;;;;;4.38;0.70;;;22.10;99.10;;;;;;5034124;28;20079;-71
2022/08/05 10:50:19;;;;;;;2.25;0.60;;;22.10;99.40;;;;;;5047537;28;20447;-70
2022/08/05 10:52:56;;;;;;;2.25;0.50;;;22.20;99.90;;;;;;5041591;28;20045;-70
2022/08/05 10:55:22;;;;;;;4.03;0.47;;;22.30;98.10;;;;;;5045837;28;20481;-70
2022/08/05 10:58:04;;;;;;;1.75;0.50;;;22.30;93.70;;;;;;5040196;28;20044;-70
2022/08/05 11:00:30;;;;;;;;;;;22.20;88.50;;;;;;5051578;28;20049;-70
2022/08/05 11:03:04;;;;;;;2.83;0.50;;;22.00;88.10;;;;;;5051782;28;19965;-70
2022/08/05 11:05:31;;;;;;;1.45;0.47;;;22.10;86.70;;;;;;5052438;28;20067;-70
2022/08/05 11:07:59;;;;;;;1.65;0.40;;;22.00;91.00;;;;;;5036150;28;20055;-70
2022/08/05 11:10:26;;;;;;;0.95;0.40;;;22.10;80.60;;;;;;5035434;28;20393;-70
2022/08/05 11:12:52;;;;;;;1.45;0.47;;;22.10;86.00;;;;;;5031932;28;20520;-70
2022/08/05 11:15:29;;;;;;;0.93;0.32;;;22.10;87.20;;;;;;5031481;28;20502;-70
2022/08/05 11:18:25;;;;;;;1.17;0.40;;;22.20;81.70;;;;;;5037441;28;20044;-70
2022/08/05 11:20:51;;;;;;;1.90;0.40;;;22.20;81.60;;;;;;5052459;28;20119;-69
2022/08/05 11:23:51;;;;;;;2.88;0.45;;;22.20;83.40;;;;;;5053056;28;20044;-70
2022/08/05 11:26:18;;;;;;;2.65;0.40;;;22.20;81.60;;;;;;5053719;28;20078;-70
2022/08/05 11:28:46;;;;;;;1.08;0.45;;;22.20;82.80;;;;;;5078497;28;20426;-70
2022/08/05 11:31:12;;;;;;;4.03;0.80;;;22.10;78.30;;;;;;5055079;28;20083;-70
2022/08/05 11:33:50;;;;;;;2.30;0.60;;;22.10;85.70;;;;;;5040481;28;20507;-69
2022/08/05 11:36:18;;;;;;;3.03;0.60;;;22.20;82.60;;;;;;5044354;28;20037;-70
2022/08/05 11:38:44;;;;;;;2.03;0.68;;;22.10;86.00;;;;;;5067267;28;20119;-70
2022/08/05 11:41:30;;;;;;;2.22;0.50;;;22.00;84.70;;;;;;5053129;28;20453;-71
2022/08/05 11:43:59;;;;;;;0.85;0.45;;;21.80;71.50;;;;;;5065893;28;20484;-70
2022/08/05 11:46:50;;;;;;;2.00;0.50;;;21.90;85.40;;;;;;5066881;28;20036;-71
2022/08/05 11:49:18;;;;;;;4.40;0.70;;;21.80;75.70;;;;;;5025709;28;20501;-70
2022/08/05 11:51:50;;;;;;;2.63;0.60;;;21.80;79.80;;;;;;5031689;28;20068;-71
2022/08/05 11:54:31;;;;;;;1.50;0.50;;;21.80;87.10;;;;;;5030228;28;20090;-70
2022/08/05 11:56:58;;;;;;;1.27;0.50;;;21.70;88.60;;;;;;5032071;28;20041;-71
2022/08/05 11:59:26;;;;;;;0.52;0.32;;;21.70;92.30;;;;;;5032737;28;20041;-70
2022/08/05 12:02:14;;;;;;;1.30;0.50;;;21.60;91.40;;;;;;5034523;28;20121;-71
2022/08/05 12:04:47;;;;;;;1.13;0.50;;;21.60;90.50;;;;;;5034408;28;20037;-71
2022/08/05 12:07:14;;;;;;;2.42;0.60;;;21.50;91.90;;;;;;5050799;28;20129;-71
2022/08/05 12:09:46;;;;;;;1.40;0.52;;;21.40;93.30;;;;;;5034018;28;20103;-70
2022/08/05 12:12:12;;;;;;;5.95;0.50;;;21.40;88.90;;;;;;5034214;28;20049;-71
2022/08/05 12:14:39;;;;;;;0.77;0.50;;;21.30;88.60;;;;;;5050884;28;20095;-71
2022/08/05 12:17:09;;;;;;;2.03;0.52;;;21.20;92.10;;;;;;5034387;28;20497;-71
2022/08/05 12:19:46;;;;;;;3.97;0.60;;;21.40;91.70;;;;;;5064776;28;20032;-71
2022/08/05 12:22:13;;;;;;;2.95;0.52;;;21.40;91.70;;;;;;5038587;28;20124;-71
2022/08/05 12:24:41;;;;;;;2.15;0.63;;;21.50;92.10;;;;;;5066411;28;20382;-71
2022/08/05 12:27:07;;;;;;;3.60;0.82;;;21.50;95.60;;;;;;5033219;28;20041;-71
2022/08/05 12:29:33;;;;;;;2.45;0.70;;;21.60;94.50;;;;;;5035028;28;20043;-71
2022/08/05 12:31:59;;;;;;;2.20;0.75;;;21.60;94.10;;;;;;5039284;28;20577;-71
2022/08/05 12:34:27;;;;;;;2.72;0.50;;;21.40;95.80;;;;;;5053577;28;20043;-70
2022/08/05 12:36:59;;;;;;;1.67;0.50;;;21.30;96.10;;;;;;5050768;28;20559;-70
2022/08/05 12:39:25;;;;;;;;;;;21.00;96.50;;;;;;5024061;28;20041;-71
2022/08/05 12:41:57;;;;;;;2.67;0.70;;;21.00;98.70;;;;;;5030726;28;20015;-71
2022/08/05 12:44:22;;;;;;;3.13;0.68;;;21.20;98.50;;;;;;5047715;28;20041;-70
2022/08/05 12:46:53;;;;;;;2.90;0.75;;;21.20;97.30;;;;;;5051366;28;20036;-71
2022/08/05 12:49:19;;;;;;;2.08;0.65;;;21.10;98.40;;;;;;5040774;28;20040;-70
2022/08/05 12:51:51;;;;;;;3.72;0.60;;;21.10;98.40;;;;;;5041599;28;20091;-71
2022/08/05 12:54:22;;;;;;;3.25;0.50;;;21.20;97.30;;;;;;5050821;28;20087;-71
2022/08/05 12:56:56;;;;;;;2.30;0.52;;;21.30;96.90;;;;;;5024539;28;20077;-71
2022/08/05 12:59:22;;;;;;;3.83;0.60;;;21.20;96.00;;;;;;5048956;28;20045;-71